createdAt,value
2024-01-01T00:02:14.645Z,4.70
2024-01-01T00:04:47.336Z,4.67
2024-01-01T00:07:19.781Z,4.65
2024-01-01T00:09:52.945Z,4.60
2024-01-01T00:12:25.505Z,4.56
2024-01-01T00:14:57.843Z,4.53
2024-01-01T00:17:30.366Z,4.48
2024-01-01T00:20:02.849Z,4.39
2024-01-01T00:22:35.581Z,4.40
2024-01-01T00:25:09.669Z,4.36
2024-01-01T00:27:42.464Z,4.39
2024-01-01T00:30:16.378Z,4.43
2024-01-01T00:32:49.189Z,4.45
2024-01-01T00:35:21.697Z,4.47
2024-01-01T00:37:54.199Z,4.48
2024-01-01T00:40:26.825Z,4.48
2024-01-01T00:42:59.331Z,4.49
2024-01-01T00:45:37.083Z,4.50
2024-01-01T00:48:16.056Z,4.52
2024-01-01T00:50:48.692Z,4.53
2024-01-01T00:53:21.160Z,4.54
2024-01-01T00:55:53.722Z,4.53
2024-01-01T00:58:26.140Z,4.52
2024-01-01T01:00:58.728Z,4.49
2024-01-01T01:03:32.444Z,4.46
2024-01-01T01:06:14.286Z,4.46
2024-01-01T01:08:53.130Z,4.46
2024-01-01T01:11:25.477Z,4.42
2024-01-01T01:13:58.221Z,4.39
2024-01-01T01:16:30.625Z,4.34
2024-01-01T01:19:03.540Z,4.31
2024-01-01T01:21:36.042Z,4.30
2024-01-01T01:24:08.823Z,4.28
2024-01-01T01:26:41.494Z,4.30
2024-01-01T01:29:14.291Z,4.30
2024-01-01T01:31:47.616Z,4.29
2024-01-01T01:34:21.391Z,4.26
2024-01-01T01:36:53.779Z,4.20
2024-01-01T01:39:26.612Z,4.14
2024-01-01T01:41:58.974Z,4.05
2024-01-01T01:44:34.764Z,4.10
2024-01-01T01:47:08.848Z,4.08
2024-01-01T01:49:41.925Z,4.04
2024-01-01T01:52:15.062Z,4.02
2024-01-01T01:54:49.109Z,3.97
2024-01-01T01:57:22.182Z,3.94
2024-01-01T01:59:57.290Z,3.94
2024-01-01T02:02:34.469Z,3.95
2024-01-01T02:05:08.073Z,3.97
2024-01-01T02:07:40.758Z,3.96
2024-01-01T02:10:13.835Z,3.95
2024-01-01T02:12:48.182Z,3.94
2024-01-01T02:15:21.712Z,3.91
2024-01-01T02:17:55.296Z,3.88
2024-01-01T02:20:28.168Z,3.87
2024-01-01T02:23:00.924Z,3.86
2024-01-01T02:25:33.428Z,3.86
2024-01-01T02:28:06.549Z,3.83
2024-01-01T02:30:39.544Z,3.79
2024-01-01T02:33:13.347Z,3.77
2024-01-01T02:35:45.950Z,3.79
2024-01-01T02:38:18.384Z,3.81
2024-01-01T02:40:50.914Z,3.80
2024-01-01T02:43:23.514Z,3.79
2024-01-01T02:45:56.063Z,3.74
2024-01-01T02:48:28.741Z,3.74
2024-01-01T02:51:01.325Z,3.74
2024-01-01T02:53:34.557Z,3.75
2024-01-01T02:56:07.531Z,3.73
2024-01-01T02:58:40.048Z,3.72
2024-01-01T03:01:12.558Z,3.71
2024-01-01T03:03:45.253Z,3.70
2024-01-01T03:06:21.223Z,3.69
2024-01-01T03:08:51.943Z,3.68
2024-01-01T03:11:24.392Z,3.66
2024-01-01T03:13:56.755Z,3.63
2024-01-01T03:16:29.237Z,3.60
2024-01-01T03:19:04.875Z,3.60
2024-01-01T03:21:37.784Z,3.59
2024-01-01T03:24:10.480Z,3.56
2024-01-01T03:26:42.920Z,3.51
2024-01-01T03:29:15.396Z,3.47
2024-01-01T03:31:48.618Z,3.45
2024-01-01T03:34:21.212Z,3.40
2024-01-01T03:36:53.692Z,3.37
2024-01-01T03:39:26.157Z,3.38
2024-01-01T03:41:58.642Z,3.36
2024-01-01T03:44:31.068Z,3.35
2024-01-01T03:47:03.911Z,3.33
2024-01-01T03:49:36.431Z,3.32
2024-01-01T03:52:09.090Z,3.32
2024-01-01T03:54:42.060Z,3.32
2024-01-01T03:57:14.527Z,3.34
2024-01-01T03:59:46.981Z,3.34
2024-01-01T04:02:19.566Z,3.34
2024-01-01T04:04:52.473Z,3.32
2024-01-01T04:07:24.956Z,3.32
2024-01-01T04:09:57.407Z,3.32
2024-01-01T04:12:29.852Z,3.34
2024-01-01T04:15:05.326Z,3.37
2024-01-01T04:17:38.108Z,3.37
2024-01-01T04:20:13.043Z,3.39
2024-01-01T04:22:46.908Z,3.39
2024-01-01T04:25:19.405Z,3.37
2024-01-01T04:27:51.807Z,3.31
2024-01-01T04:30:24.213Z,3.28
2024-01-01T04:32:56.802Z,3.28
2024-01-01T04:35:29.357Z,3.30
2024-01-01T04:38:02.575Z,3.32
2024-01-01T04:40:35.546Z,3.27
2024-01-01T04:43:08.350Z,3.14
2024-01-01T04:45:40.777Z,3.08
2024-01-01T04:48:13.808Z,3.08
2024-01-01T04:50:46.535Z,3.10
2024-01-01T04:53:19.251Z,3.10
2024-01-01T04:55:51.791Z,3.13
2024-01-01T04:58:24.432Z,3.16
2024-01-01T05:00:56.858Z,3.14
2024-01-01T05:03:29.373Z,3.12
2024-01-01T05:06:02.017Z,3.12
2024-01-01T05:08:34.781Z,3.11
2024-01-01T05:11:09.034Z,3.11
2024-01-01T05:13:41.465Z,3.11
2024-01-01T05:16:14.505Z,3.05
2024-01-01T05:18:47.005Z,2.96
2024-01-01T05:21:19.532Z,2.93
2024-01-01T05:23:52.143Z,2.86
2024-01-01T05:26:24.512Z,2.77
2024-01-01T05:28:57.970Z,2.67
2024-01-01T05:31:30.426Z,2.63
2024-01-01T05:34:02.882Z,2.66
2024-01-01T05:36:35.467Z,2.70
2024-01-01T05:39:08.172Z,2.72
2024-01-01T05:41:40.568Z,2.76
2024-01-01T05:44:12.987Z,2.79
2024-01-01T05:46:45.461Z,2.81
2024-01-01T05:49:19.094Z,2.80
2024-01-01T05:51:52.313Z,2.78
2024-01-01T05:54:24.748Z,2.81
2024-01-01T05:56:57.414Z,2.83
2024-01-01T05:59:29.852Z,2.84
2024-01-01T06:02:02.382Z,2.85
2024-01-01T06:04:34.848Z,2.86
2024-01-01T06:07:07.684Z,2.86
2024-01-01T06:09:40.341Z,2.87
2024-01-01T06:12:12.798Z,2.88
2024-01-01T06:14:46.738Z,2.88
2024-01-01T06:17:20.269Z,2.88
2024-01-01T06:19:53.235Z,2.88
2024-01-01T06:22:25.963Z,2.87
2024-01-01T06:24:58.430Z,2.86
2024-01-01T06:27:31.596Z,2.88
2024-01-01T06:30:04.152Z,2.90
2024-01-01T06:32:36.794Z,2.90
2024-01-01T06:35:10.581Z,2.93
2024-01-01T06:37:43.174Z,2.98
2024-01-01T06:40:16.356Z,3.05
2024-01-01T06:42:48.710Z,3.11
2024-01-01T06:45:21.244Z,3.16
2024-01-01T06:47:53.801Z,3.18
2024-01-01T06:50:26.398Z,3.15
2024-01-01T06:52:58.865Z,3.17
2024-01-01T06:55:32.407Z,3.22
2024-01-01T06:58:05.248Z,3.28
2024-01-01T07:00:38.057Z,3.32
2024-01-01T07:03:10.672Z,3.36
2024-01-01T07:05:43.294Z,3.36
2024-01-01T07:08:15.770Z,3.39
2024-01-01T07:10:49.618Z,3.42
2024-01-01T07:13:22.333Z,3.45
2024-01-01T07:15:54.732Z,3.54
2024-01-01T07:18:27.210Z,3.61
2024-01-01T07:21:01.356Z,3.70
2024-01-01T07:23:33.756Z,3.79
2024-01-01T07:26:06.932Z,3.91
2024-01-01T07:28:39.459Z,4.06
2024-01-01T07:31:12.117Z,4.26
2024-01-01T07:33:44.602Z,4.44
2024-01-01T07:36:17.205Z,4.68
2024-01-01T07:38:49.649Z,4.94
2024-01-01T07:41:22.841Z,5.19
2024-01-01T07:43:55.435Z,5.46
2024-01-01T07:46:27.827Z,5.73
2024-01-01T07:49:02.228Z,6.00
2024-01-01T07:51:35.222Z,6.22
2024-01-01T07:54:07.647Z,6.39
2024-01-01T07:56:45.341Z,6.45
2024-01-01T07:59:18.136Z,6.53
2024-01-01T08:01:50.817Z,6.53
2024-01-01T08:04:23.274Z,6.48
2024-01-01T08:06:55.704Z,6.49
2024-01-01T08:09:28.105Z,6.51
2024-01-01T08:12:00.545Z,6.52
2024-01-01T08:14:33.036Z,6.51
2024-01-01T08:17:05.794Z,6.51
2024-01-01T08:19:38.560Z,6.52
2024-01-01T08:22:11.246Z,6.65
2024-01-01T08:24:43.652Z,6.86
2024-01-01T08:27:16.131Z,7.09
2024-01-01T08:29:48.616Z,7.33
2024-01-01T08:32:21.110Z,7.60
2024-01-01T08:34:53.644Z,7.82
2024-01-01T08:37:26.144Z,8.09
2024-01-01T08:39:58.532Z,8.26
2024-01-01T08:42:31.164Z,8.28
2024-01-01T08:45:04.994Z,8.32
2024-01-01T08:47:40.578Z,8.44
2024-01-01T08:50:14.706Z,8.58
2024-01-01T08:52:47.311Z,8.67
2024-01-01T08:55:19.758Z,8.82
2024-01-01T08:57:52.224Z,8.98
2024-01-01T09:00:25.523Z,9.05
2024-01-01T09:02:57.995Z,9.10
2024-01-01T09:05:30.521Z,9.25
2024-01-01T09:08:03.169Z,9.51
2024-01-01T09:10:35.623Z,9.76
2024-01-01T09:13:08.610Z,9.84
2024-01-01T09:15:41.106Z,9.84
2024-01-01T09:18:14.161Z,9.75
2024-01-01T09:20:47.040Z,9.78
2024-01-01T09:23:19.859Z,9.92
2024-01-01T09:25:52.670Z,10.01
2024-01-01T09:28:25.018Z,10.15
2024-01-01T09:30:57.663Z,10.33
2024-01-01T09:33:30.313Z,10.48
2024-01-01T09:36:04.199Z,10.50
2024-01-01T09:38:36.836Z,10.45
2024-01-01T09:41:11.816Z,10.48
2024-01-01T09:43:46.430Z,10.62
2024-01-01T09:46:19.222Z,10.73
2024-01-01T09:48:52.086Z,10.70
2024-01-01T09:51:25.576Z,10.61
2024-01-01T09:53:58.186Z,10.47
2024-01-01T09:56:31.919Z,10.41
2024-01-01T09:59:04.751Z,10.44
2024-01-01T10:01:40.034Z,10.52
2024-01-01T10:04:12.657Z,10.67
2024-01-01T10:06:59.996Z,10.84
2024-01-01T10:09:34.263Z,10.95
2024-01-01T10:12:13.906Z,11.01
2024-01-01T10:14:50.533Z,11.06
2024-01-01T10:17:23.285Z,11.11
2024-01-01T10:19:58.161Z,11.19
2024-01-01T10:22:34.662Z,11.31
2024-01-01T10:25:27.980Z,11.40
2024-01-01T10:28:04.332Z,11.52
2024-01-01T10:30:36.955Z,11.50
2024-01-01T10:33:10.631Z,11.56
2024-01-01T10:35:44.615Z,11.50
2024-01-01T10:38:18.942Z,11.25
2024-01-01T10:40:56.475Z,11.13
2024-01-01T10:43:30.189Z,11.13
2024-01-01T10:46:06.655Z,11.05
2024-01-01T10:48:40.026Z,10.81
2024-01-01T10:51:30.738Z,10.62
2024-01-01T10:54:18.645Z,10.59
2024-01-01T10:57:02.962Z,10.61
2024-01-01T10:59:42.514Z,10.53
2024-01-01T11:02:15.226Z,10.42
2024-01-01T11:04:52.188Z,10.38
2024-01-01T11:07:54.992Z,10.43
2024-01-01T11:10:45.735Z,10.56
2024-01-01T11:13:57.385Z,10.67
2024-01-01T11:17:00.698Z,10.72
2024-01-01T11:19:44.393Z,10.76
2024-01-01T11:22:42.596Z,10.82
2024-01-01T11:25:35.713Z,10.90
2024-01-01T11:28:08.386Z,11.00
2024-01-01T11:30:44.812Z,11.07
2024-01-01T11:33:18.603Z,11.12
2024-01-01T11:35:51.945Z,11.07
2024-01-01T11:38:24.683Z,10.98
2024-01-01T11:41:00.417Z,10.89
2024-01-01T11:43:32.901Z,10.85
2024-01-01T11:46:05.381Z,10.82
2024-01-01T11:48:38.394Z,10.81
2024-01-01T11:51:10.913Z,10.80
2024-01-01T11:53:43.456Z,10.80
2024-01-01T11:56:16.076Z,10.77
2024-01-01T11:58:48.783Z,10.76
2024-01-01T12:01:21.647Z,10.74
2024-01-01T12:03:55.001Z,10.74
2024-01-01T12:06:27.811Z,10.73
2024-01-01T12:09:11.663Z,10.74
2024-01-01T12:11:45.506Z,10.75
2024-01-01T12:14:26.040Z,10.77
2024-01-01T12:16:58.941Z,10.81
2024-01-01T12:19:32.783Z,10.84
2024-01-01T12:22:05.448Z,10.90
2024-01-01T12:24:37.929Z,10.95
2024-01-01T12:27:10.562Z,10.99
2024-01-01T12:29:53.461Z,11.02
2024-01-01T12:32:26.465Z,11.00
2024-01-01T12:34:59.461Z,10.96
2024-01-01T12:37:33.078Z,10.89
2024-01-01T12:40:05.651Z,10.84
2024-01-01T12:42:38.079Z,10.80
2024-01-01T12:45:13.598Z,10.76
2024-01-01T12:47:46.392Z,10.75
2024-01-01T12:50:19.545Z,10.74
2024-01-01T12:52:52.194Z,10.74
2024-01-01T12:55:24.994Z,10.72
2024-01-01T12:57:57.393Z,10.71
2024-01-01T13:00:29.927Z,10.72
2024-01-01T13:03:02.554Z,10.72
2024-01-01T13:05:35.225Z,10.71
2024-01-01T13:08:08.581Z,10.70
2024-01-01T13:10:41.919Z,10.66
2024-01-01T13:13:14.516Z,10.63
2024-01-01T13:15:48.571Z,10.58
2024-01-01T13:18:21.105Z,10.55
2024-01-01T13:20:54.158Z,10.53
2024-01-01T13:23:27.090Z,10.53
2024-01-01T13:26:00.246Z,10.49
2024-01-01T13:28:32.959Z,10.44
2024-01-01T13:31:05.587Z,10.44
2024-01-01T13:33:38.216Z,10.44
2024-01-01T13:36:11.445Z,10.41
2024-01-01T13:38:43.920Z,10.42
2024-01-01T13:41:16.840Z,10.40
2024-01-01T13:43:49.427Z,10.37
2024-01-01T13:46:21.929Z,10.36
2024-01-01T13:48:54.401Z,10.35
2024-01-01T13:51:26.827Z,10.35
2024-01-01T13:53:59.260Z,10.30
2024-01-01T13:56:31.861Z,10.24
2024-01-01T13:59:05.196Z,10.19
2024-01-01T14:01:41.121Z,10.17
2024-01-01T14:04:13.977Z,10.12
2024-01-01T14:06:46.463Z,10.11
2024-01-01T14:09:20.046Z,10.08
2024-01-01T14:11:53.262Z,10.04
2024-01-01T14:14:25.661Z,10.00
2024-01-01T14:16:59.260Z,9.97
2024-01-01T14:19:31.778Z,9.94
2024-01-01T14:22:05.167Z,9.89
2024-01-01T14:24:37.781Z,9.83
2024-01-01T14:27:12.456Z,9.77
2024-01-01T14:29:45.108Z,9.73
2024-01-01T14:32:18.117Z,9.70
2024-01-01T14:34:50.578Z,9.67
2024-01-01T14:37:23.109Z,9.65
2024-01-01T14:39:55.703Z,9.61
2024-01-01T14:42:28.362Z,9.58
2024-01-01T14:45:00.923Z,9.56
2024-01-01T14:47:33.472Z,9.53
2024-01-01T14:50:06.267Z,9.49
2024-01-01T14:52:41.152Z,9.46
2024-01-01T14:55:13.890Z,9.44
2024-01-01T14:57:46.350Z,9.40
2024-01-01T15:00:20.179Z,9.36
2024-01-01T15:02:53.602Z,9.33
2024-01-01T15:05:27.176Z,9.29
2024-01-01T15:08:00.201Z,9.26
2024-01-01T15:10:32.836Z,9.24
2024-01-01T15:13:05.636Z,9.22
2024-01-01T15:15:38.326Z,9.19
2024-01-01T15:18:11.115Z,9.16
2024-01-01T15:20:43.724Z,9.14
2024-01-01T15:23:16.518Z,9.11
2024-01-01T15:25:49.698Z,9.09
2024-01-01T15:28:22.346Z,9.06
2024-01-01T15:30:55.096Z,9.05
2024-01-01T15:33:27.795Z,9.04
2024-01-01T15:36:00.251Z,9.00
2024-01-01T15:38:32.769Z,8.95
2024-01-01T15:41:05.316Z,8.93
2024-01-01T15:43:37.839Z,8.90
2024-01-01T15:46:11.289Z,8.87
2024-01-01T15:48:43.940Z,8.84
2024-01-01T15:51:22.008Z,8.82
2024-01-01T15:54:00.649Z,8.80
2024-01-01T15:56:33.123Z,8.78
2024-01-01T15:59:05.670Z,8.75
2024-01-01T16:01:38.110Z,8.73
2024-01-01T16:04:10.711Z,8.69
2024-01-01T16:06:43.732Z,8.66
2024-01-01T16:09:16.215Z,8.64
2024-01-01T16:11:48.641Z,8.61
2024-01-01T16:14:21.104Z,8.59
2024-01-01T16:16:56.551Z,8.58
2024-01-01T16:19:34.448Z,8.57
2024-01-01T16:22:11.087Z,8.56
2024-01-01T16:24:43.917Z,8.54
2024-01-01T16:27:16.311Z,8.48
2024-01-01T16:29:48.744Z,8.45
2024-01-01T16:32:21.275Z,8.42
2024-01-01T16:34:53.820Z,8.37
2024-01-01T16:37:26.892Z,8.30
2024-01-01T16:39:59.289Z,8.28
2024-01-01T16:42:31.871Z,8.22
2024-01-01T16:45:04.581Z,8.14
2024-01-01T16:47:37.691Z,8.08
2024-01-01T16:50:12.037Z,8.06
2024-01-01T16:52:44.528Z,8.04
2024-01-01T16:55:17.066Z,8.02
2024-01-01T16:57:49.559Z,8.02
2024-01-01T17:00:22.130Z,8.01
2024-01-01T17:02:54.533Z,8.01
2024-01-01T17:05:27.152Z,8.00
2024-01-01T17:07:59.910Z,7.98
2024-01-01T17:10:32.376Z,7.97
2024-01-01T17:13:05.180Z,7.96
2024-01-01T17:15:38.784Z,7.95
2024-01-01T17:18:11.446Z,7.94
2024-01-01T17:20:44.498Z,7.93
2024-01-01T17:23:16.857Z,7.91
2024-01-01T17:25:49.250Z,7.89
2024-01-01T17:28:21.698Z,7.85
2024-01-01T17:30:54.204Z,7.82
2024-01-01T17:33:26.978Z,7.80
2024-01-01T17:36:00.152Z,7.80
2024-01-01T17:38:32.643Z,7.81
2024-01-01T17:41:05.794Z,7.82
2024-01-01T17:43:38.237Z,7.81
2024-01-01T17:46:10.889Z,7.81
2024-01-01T17:48:43.454Z,7.80
2024-01-01T17:51:16.087Z,7.76
2024-01-01T17:53:48.993Z,7.72
2024-01-01T17:56:21.737Z,7.69
2024-01-01T17:58:55.979Z,7.68
2024-01-01T18:01:28.472Z,7.67
2024-01-01T18:04:00.817Z,7.65
2024-01-01T18:06:33.298Z,7.62
2024-01-01T18:09:06.135Z,7.61
2024-01-01T18:11:38.580Z,7.58
2024-01-01T18:14:11.156Z,7.57
2024-01-01T18:16:45.978Z,7.54
2024-01-01T18:19:18.505Z,7.52
2024-01-01T18:21:51.306Z,7.48
2024-01-01T18:24:24.284Z,7.45
2024-01-01T18:26:56.716Z,7.42
2024-01-01T18:29:29.285Z,7.40
2024-01-01T18:32:01.852Z,7.38
2024-01-01T18:34:35.834Z,7.38
2024-01-01T18:37:08.338Z,7.36
2024-01-01T18:39:40.804Z,7.33
2024-01-01T18:42:13.285Z,7.32
2024-01-01T18:44:45.873Z,7.30
2024-01-01T18:47:18.377Z,7.30
2024-01-01T18:49:51.141Z,7.29
2024-01-01T18:52:23.800Z,7.29
2024-01-01T18:54:56.325Z,7.31
2024-01-01T18:57:29.433Z,7.35
2024-01-01T19:00:06.376Z,7.36
2024-01-01T19:02:39.415Z,7.36
2024-01-01T19:05:12.503Z,7.39
2024-01-01T19:07:45.213Z,7.42
2024-01-01T19:10:18.005Z,7.43
2024-01-01T19:12:50.490Z,7.44
2024-01-01T19:15:22.975Z,7.45
2024-01-01T19:17:55.673Z,7.45
2024-01-01T19:20:29.900Z,7.43
2024-01-01T19:23:02.347Z,7.39
2024-01-01T19:25:34.765Z,7.34
2024-01-01T19:28:07.764Z,7.30
2024-01-01T19:30:40.240Z,7.30
2024-01-01T19:33:17.391Z,7.29
2024-01-01T19:35:50.587Z,7.30
2024-01-01T19:38:22.983Z,7.25
2024-01-01T19:40:55.738Z,7.28
2024-01-01T19:43:28.304Z,7.28
2024-01-01T19:46:01.277Z,7.28
2024-01-01T19:48:33.861Z,7.26
2024-01-01T19:51:08.533Z,7.26
2024-01-01T19:53:41.005Z,7.25
2024-01-01T19:56:13.536Z,7.25
2024-01-01T19:58:45.976Z,7.26
2024-01-01T20:01:18.461Z,7.24
2024-01-01T20:03:51.003Z,7.24
2024-01-01T20:06:23.668Z,7.23
2024-01-01T20:08:56.332Z,7.23
2024-01-01T20:11:29.163Z,7.19
2024-01-01T20:14:01.764Z,7.24
2024-01-01T20:16:34.684Z,7.23
2024-01-01T20:19:07.258Z,7.25
2024-01-01T20:21:39.729Z,7.23
2024-01-01T20:24:13.205Z,7.21
2024-01-01T20:26:45.758Z,7.17
2024-01-01T20:29:18.672Z,7.11
2024-01-01T20:31:51.165Z,7.07
2024-01-01T20:34:24.305Z,7.03
2024-01-01T20:36:56.891Z,7.02
2024-01-01T20:39:29.257Z,7.01
2024-01-01T20:42:01.697Z,7.01
2024-01-01T20:44:34.186Z,6.99
2024-01-01T20:47:07.036Z,6.96
2024-01-01T20:49:39.728Z,6.95
2024-01-01T20:52:19.708Z,6.93
2024-01-01T20:54:58.945Z,6.93
2024-01-01T20:57:32.524Z,6.91
2024-01-01T21:00:06.037Z,6.90
2024-01-01T21:02:41.738Z,6.84
2024-01-01T21:05:14.712Z,6.80
2024-01-01T21:07:47.244Z,6.77
2024-01-01T21:10:20.388Z,6.75
2024-01-01T21:12:53.237Z,6.73
2024-01-01T21:15:26.042Z,6.74
2024-01-01T21:17:58.711Z,6.75
2024-01-01T21:20:31.282Z,6.77
2024-01-01T21:23:03.904Z,6.78
2024-01-01T21:25:36.470Z,6.78
2024-01-01T21:28:09.388Z,6.77
2024-01-01T21:30:41.849Z,6.78
2024-01-01T21:33:14.385Z,6.78
2024-01-01T21:35:47.062Z,6.78
2024-01-01T21:38:20.245Z,6.75
2024-01-01T21:40:52.695Z,6.75
2024-01-01T21:43:25.203Z,6.76
2024-01-01T21:45:57.807Z,6.79
2024-01-01T21:48:30.316Z,6.80
2024-01-01T21:51:02.862Z,6.79
2024-01-01T21:53:35.720Z,6.77
2024-01-01T21:56:09.630Z,6.75
2024-01-01T21:58:42.691Z,6.77
2024-01-01T22:01:15.623Z,6.77
2024-01-01T22:03:48.480Z,6.76
2024-01-01T22:06:22.076Z,6.78
2024-01-01T22:08:54.597Z,6.78
2024-01-01T22:11:27.146Z,6.81
2024-01-01T22:13:59.721Z,6.80
2024-01-01T22:16:32.194Z,6.79
2024-01-01T22:19:04.675Z,6.79
2024-01-01T22:21:37.156Z,6.79
2024-01-01T22:24:10.933Z,6.79
2024-01-01T22:26:43.370Z,6.81
2024-01-01T22:29:15.861Z,6.82
2024-01-01T22:31:48.292Z,6.83
2024-01-01T22:34:21.027Z,6.83
2024-01-01T22:36:53.609Z,6.81
2024-01-01T22:39:26.189Z,6.82
2024-01-01T22:41:58.602Z,6.82
2024-01-01T22:44:31.107Z,6.81
2024-01-01T22:47:04.370Z,6.78
2024-01-01T22:49:36.813Z,6.75
2024-01-01T22:52:09.759Z,6.74
2024-01-01T22:54:42.174Z,6.71
2024-01-01T22:57:14.544Z,6.69
2024-01-01T22:59:46.988Z,6.67
2024-01-01T23:02:20.284Z,6.64
2024-01-01T23:04:53.249Z,6.63
2024-01-01T23:07:25.866Z,6.59
2024-01-01T23:09:58.174Z,6.53
2024-01-01T23:12:30.736Z,6.49
2024-01-01T23:15:03.128Z,6.46
2024-01-01T23:17:35.841Z,6.44
2024-01-01T23:20:09.691Z,6.41
2024-01-01T23:22:42.486Z,6.40
2024-01-01T23:25:16.313Z,6.39
2024-01-01T23:27:48.741Z,6.39
2024-01-01T23:30:21.912Z,6.39
2024-01-01T23:32:56.601Z,6.37
2024-01-01T23:35:29.525Z,6.36
2024-01-01T23:38:02.099Z,6.36
2024-01-01T23:40:34.705Z,6.35
2024-01-01T23:43:07.656Z,6.36
2024-01-01T23:45:40.240Z,6.39
2024-01-01T23:48:13.044Z,6.40
2024-01-01T23:50:48.662Z,6.40
2024-01-01T23:53:22.129Z,6.38
2024-01-01T23:55:54.963Z,6.37
2024-01-01T23:58:27.576Z,6.37
